Time;durP1;ratioP1;P1;durP2;ratioP2;P2;SDS_P1;SDS_P2;PMS_P1;PMS_P2;Temp;Humidity;BMP_temperature;BMP_pressure;BME280_temperature;BME280_humidity;BME280_pressure;Samples;Min_cycle;Max_cycle;Signal;HPM_P1;HPM_P2
2023/06/05 00:00:57;;;;;;;7.43;3.05;;;17.50;57.00;;;;;;5031480;28;20124;-71
2023/06/05 00:03:24;;;;;;;7.22;3.10;;;17.40;57.10;;;;;;5033847;28;20037;-70
2023/06/05 00:05:50;;;;;;;6.97;2.90;;;17.40;57.20;;;;;;5033999;28;20437;-70
2023/06/05 00:08:16;;;;;;;6.97;3.17;;;17.30;57.20;;;;;;5034108;28;20124;-70
2023/06/05 00:10:42;;;;;;;6.53;3.30;;;17.30;57.40;;;;;;5027100;28;20037;-70
2023/06/05 00:13:08;;;;;;;7.05;3.10;;;17.30;57.50;;;;;;5032411;28;20439;-71
2023/06/05 00:15:35;;;;;;;6.93;3.20;;;17.30;57.50;;;;;;5031081;28;20040;-70
2023/06/05 00:18:03;;;;;;;7.07;3.00;;;17.20;57.60;;;;;;5031262;28;20030;-70
2023/06/05 00:20:29;;;;;;;6.75;3.10;;;17.20;57.70;;;;;;5031178;28;20329;-70
2023/06/05 00:22:55;;;;;;;6.13;3.00;;;17.10;57.70;;;;;;5031384;28;20033;-70
2023/06/05 00:25:21;;;;;;;8.00;3.75;;;17.20;57.80;;;;;;5029338;28;20056;-70
2023/06/05 00:27:47;;;;;;;7.13;3.30;;;17.10;57.90;;;;;;5032856;28;20680;-70
2023/06/05 00:30:13;;;;;;;7.30;3.15;;;17.10;58.00;;;;;;5031418;28;20044;-71
2023/06/05 00:32:40;;;;;;;8.57;3.70;;;17.00;58.00;;;;;;5026940;28;20018;-70
2023/06/05 00:35:07;;;;;;;7.15;3.35;;;17.00;58.10;;;;;;5030827;28;20043;-70
2023/06/05 00:37:33;;;;;;;6.72;3.38;;;17.00;58.20;;;;;;5029727;28;20040;-70
2023/06/05 00:39:59;;;;;;;6.70;3.30;;;16.90;58.30;;;;;;5024372;28;20036;-70
2023/06/05 00:42:28;;;;;;;7.40;3.55;;;16.90;58.30;;;;;;5021260;28;20124;-70
2023/06/05 00:44:54;;;;;;;7.03;3.50;;;16.90;58.30;;;;;;5022112;28;20021;-70
2023/06/05 00:47:20;;;;;;;8.13;3.60;;;16.90;58.40;;;;;;5010707;28;20025;-70
2023/06/05 00:49:47;;;;;;;7.43;3.90;;;16.90;58.40;;;;;;5033123;28;20112;-70
2023/06/05 00:52:14;;;;;;;7.38;3.42;;;16.90;58.50;;;;;;5022568;28;20035;-70
2023/06/05 00:54:41;;;;;;;8.25;3.42;;;16.90;58.60;;;;;;5027913;28;20021;-70
2023/06/05 00:57:07;;;;;;;7.05;3.58;;;16.80;58.70;;;;;;5023664;28;20026;-70
2023/06/05 00:59:34;;;;;;;9.00;3.95;;;16.80;58.80;;;;;;5031190;28;20088;-71
2023/06/05 01:02:02;;;;;;;7.72;3.65;;;16.80;58.90;;;;;;5025625;28;20133;-71
2023/06/05 01:04:32;;;;;;;9.10;4.38;;;16.70;58.90;;;;;;5024241;28;20025;-71
2023/06/05 01:07:00;;;;;;;7.70;3.53;;;16.70;59.00;;;;;;5027387;28;20021;-70
2023/06/05 01:09:27;;;;;;;8.73;4.47;;;16.70;59.00;;;;;;5027058;28;20032;-70
2023/06/05 01:12:00;;;;;;;8.05;3.85;;;16.70;59.10;;;;;;5012554;28;20052;-70
2023/06/05 01:14:30;;;;;;;10.57;4.10;;;16.60;59.20;;;;;;5028864;28;20482;-70
2023/06/05 01:17:00;;;;;;;10.10;4.38;;;16.60;59.20;;;;;;5031003;28;20041;-70
2023/06/05 01:19:30;;;;;;;7.80;3.65;;;16.60;59.30;;;;;;5006561;28;20458;-71
2023/06/05 01:22:00;;;;;;;7.53;4.35;;;16.50;59.40;;;;;;5028487;28;20038;-70
2023/06/05 01:24:27;;;;;;;8.50;4.03;;;16.50;59.50;;;;;;5010081;28;20366;-70
2023/06/05 01:27:22;;;;;;;8.52;3.88;;;16.50;59.60;;;;;;5032626;28;20034;-71
2023/06/05 01:30:03;;;;;;;9.43;3.95;;;16.50;59.60;;;;;;5023058;28;20453;-71
2023/06/05 01:32:40;;;;;;;8.05;4.35;;;16.50;59.70;;;;;;5031115;28;20061;-70
2023/06/05 01:35:08;;;;;;;7.07;4.05;;;16.40;59.80;;;;;;5011779;28;20038;-70
2023/06/05 01:37:40;;;;;;;11.60;4.28;;;16.40;59.80;;;;;;5029165;28;20032;-70
2023/06/05 01:40:11;;;;;;;9.23;4.28;;;16.30;59.90;;;;;;5031686;28;20051;-70
2023/06/05 01:42:39;;;;;;;7.22;3.67;;;16.30;60.00;;;;;;5019127;28;20050;-70
2023/06/05 01:45:07;;;;;;;7.82;4.47;;;16.30;60.10;;;;;;5032695;28;20039;-70
2023/06/05 01:47:36;;;;;;;8.05;3.95;;;16.30;60.10;;;;;;5032502;28;20347;-70
2023/06/05 01:50:02;;;;;;;8.20;3.97;;;16.30;60.20;;;;;;5025007;28;20025;-70
2023/06/05 01:52:27;;;;;;;11.57;4.78;;;16.30;60.20;;;;;;5021329;28;20032;-71
2023/06/05 01:54:54;;;;;;;7.15;4.13;;;16.30;60.30;;;;;;5028743;28;20057;-70
2023/06/05 01:57:21;;;;;;;8.05;4.55;;;16.20;60.30;;;;;;5030006;28;20148;-71
2023/06/05 01:59:49;;;;;;;7.70;4.35;;;16.20;60.30;;;;;;5025828;28;20040;-70
2023/06/05 02:02:18;;;;;;;9.63;4.75;;;16.10;60.40;;;;;;5025849;28;20060;-71
2023/06/05 02:04:47;;;;;;;9.30;4.68;;;16.10;60.60;;;;;;5028180;28;20429;-70
2023/06/05 02:07:14;;;;;;;9.38;5.32;;;16.10;60.70;;;;;;5055790;28;20120;-70
2023/06/05 02:09:41;;;;;;;8.63;4.70;;;16.10;60.70;;;;;;5034500;28;20339;-70
2023/06/05 02:12:07;;;;;;;10.07;4.85;;;16.10;60.70;;;;;;5044112;28;20099;-70
2023/06/05 02:14:35;;;;;;;10.45;4.93;;;16.10;60.80;;;;;;5038214;28;20083;-71
2023/06/05 02:17:05;;;;;;;8.45;4.95;;;16.00;60.90;;;;;;5043140;28;20117;-70
2023/06/05 02:19:32;;;;;;;9.93;5.35;;;16.00;60.90;;;;;;5043976;28;20407;-70
2023/06/05 02:21:58;;;;;;;9.23;4.47;;;16.00;61.00;;;;;;5050579;28;20025;-70
2023/06/05 02:24:26;;;;;;;8.02;4.43;;;16.00;61.10;;;;;;5031510;28;20040;-70
2023/06/05 02:26:53;;;;;;;9.63;5.13;;;15.90;61.10;;;;;;5038599;28;20407;-71
2023/06/05 02:29:19;;;;;;;10.82;5.30;;;15.90;61.20;;;;;;5048547;28;20113;-70
2023/06/05 02:31:45;;;;;;;9.05;4.80;;;15.90;61.30;;;;;;5051802;28;20040;-70
2023/06/05 02:34:11;;;;;;;9.13;5.32;;;15.90;61.40;;;;;;5035495;28;20026;-70
2023/06/05 02:36:38;;;;;;;9.63;5.13;;;15.90;61.50;;;;;;5034882;28;20032;-71
2023/06/05 02:39:07;;;;;;;10.15;4.93;;;15.80;61.50;;;;;;5049297;28;20336;-70
2023/06/05 02:41:33;;;;;;;9.98;5.10;;;15.80;61.50;;;;;;5048153;28;20032;-70
2023/06/05 02:43:59;;;;;;;8.13;5.47;;;15.80;61.50;;;;;;5055852;28;20021;-70
2023/06/05 02:46:26;;;;;;;8.90;5.32;;;15.80;61.60;;;;;;5017720;28;20064;-71
2023/06/05 02:48:52;;;;;;;8.88;5.00;;;15.70;61.80;;;;;;5034600;28;20434;-71
2023/06/05 02:51:18;;;;;;;10.15;5.38;;;15.70;61.80;;;;;;5045694;28;20037;-70
2023/06/05 02:53:45;;;;;;;8.45;5.00;;;15.70;61.90;;;;;;5048165;28;20060;-70
2023/06/05 02:56:13;;;;;;;10.02;5.43;;;15.70;62.00;;;;;;5012452;28;20029;-70
2023/06/05 02:58:43;;;;;;;11.32;5.95;;;15.70;62.00;;;;;;5041103;28;20078;-70
2023/06/05 03:01:10;;;;;;;8.52;5.28;;;15.60;62.00;;;;;;5040862;28;20034;-70
2023/06/05 03:03:41;;;;;;;10.48;6.18;;;15.60;62.10;;;;;;5047764;28;20112;-70
2023/06/05 03:06:07;;;;;;;9.43;6.00;;;15.60;62.20;;;;;;5036640;28;20511;-70
2023/06/05 03:08:38;;;;;;;10.53;5.97;;;15.60;62.20;;;;;;5039890;28;20029;-70
2023/06/05 03:11:05;;;;;;;12.40;5.72;;;15.60;62.20;;;;;;5026507;28;20271;-70
2023/06/05 03:13:32;;;;;;;9.48;5.63;;;15.50;62.30;;;;;;5028057;28;20069;-71
2023/06/05 03:16:01;;;;;;;10.27;6.35;;;15.50;62.50;;;;;;5032237;28;20447;-70
2023/06/05 03:18:29;;;;;;;11.45;5.78;;;15.50;62.60;;;;;;5035330;28;20021;-71
2023/06/05 03:20:58;;;;;;;11.65;6.10;;;15.50;62.60;;;;;;5023048;28;20022;-70
2023/06/05 03:23:25;;;;;;;9.43;5.15;;;15.40;62.60;;;;;;5050302;28;20018;-70
2023/06/05 03:25:52;;;;;;;9.75;6.20;;;15.40;63.30;;;;;;5027169;28;20470;-70
2023/06/05 03:28:21;;;;;;;8.07;4.90;;;15.40;62.80;;;;;;5017267;28;20037;-70
2023/06/05 03:30:48;;;;;;;9.93;6.13;;;15.40;62.80;;;;;;5032698;28;20506;-70
2023/06/05 03:33:17;;;;;;;9.40;5.70;;;15.40;62.80;;;;;;5047803;28;20068;-70
2023/06/05 03:35:46;;;;;;;10.23;6.05;;;15.40;62.90;;;;;;5049333;28;20446;-70
2023/06/05 03:38:12;;;;;;;12.20;5.90;;;15.30;62.80;;;;;;5036202;28;20042;-70
2023/06/05 03:40:39;;;;;;;10.45;6.22;;;15.30;62.90;;;;;;5046430;28;20060;-70
2023/06/05 03:43:07;;;;;;;11.30;5.55;;;15.30;63.00;;;;;;5030130;28;20071;-70
2023/06/05 03:45:36;;;;;;;8.65;5.50;;;15.30;63.00;;;;;;5050284;28;20124;-70
2023/06/05 03:48:03;;;;;;;9.63;5.80;;;15.30;63.70;;;;;;5021166;28;20038;-70
2023/06/05 03:50:37;;;;;;;10.20;5.75;;;15.30;63.00;;;;;;5019616;28;20075;-70
2023/06/05 03:53:03;;;;;;;10.55;6.20;;;15.30;63.10;;;;;;5043039;28;20032;-70
2023/06/05 03:55:42;;;;;;;9.90;5.47;;;15.30;63.00;;;;;;5051514;28;20020;-70
2023/06/05 03:58:16;;;;;;;10.00;5.13;;;15.30;63.00;;;;;;5020317;28;20022;-70
2023/06/05 04:00:48;;;;;;;11.32;5.88;;;15.30;63.10;;;;;;5028033;28;20455;-70
2023/06/05 04:03:15;;;;;;;11.23;5.90;;;15.20;63.10;;;;;;5014905;28;20028;-70
2023/06/05 04:05:42;;;;;;;8.57;5.43;;;15.20;63.10;;;;;;5033023;28;20026;-70
2023/06/05 04:08:11;;;;;;;11.05;5.80;;;15.20;63.10;;;;;;5028444;28;20426;-70
2023/06/05 04:10:38;;;;;;;10.60;5.82;;;15.20;63.20;;;;;;5026752;28;20360;-70
2023/06/05 04:13:04;;;;;;;10.93;5.75;;;15.20;63.20;;;;;;5028617;28;20091;-70
2023/06/05 04:15:33;;;;;;;11.15;6.68;;;15.20;63.20;;;;;;5036879;28;20117;-71
2023/06/05 04:18:00;;;;;;;10.32;5.40;;;15.30;63.30;;;;;;5031032;28;20029;-70
2023/06/05 04:20:26;;;;;;;10.15;6.35;;;15.30;63.30;;;;;;5034912;28;20500;-70
2023/06/05 04:22:51;;;;;;;9.93;6.00;;;15.20;63.20;;;;;;5035934;28;20137;-70
2023/06/05 04:25:18;;;;;;;10.32;6.18;;;15.20;63.20;;;;;;5037782;28;20025;-70
2023/06/05 04:27:49;;;;;;;11.20;6.28;;;15.20;63.90;;;;;;5014627;28;20155;-70
2023/06/05 04:30:15;;;;;;;12.70;6.10;;;15.20;63.30;;;;;;5033212;28;20029;-71
2023/06/05 04:32:41;;;;;;;9.98;6.63;;;15.20;63.30;;;;;;5034957;28;20056;-71
2023/06/05 04:35:11;;;;;;;11.88;6.60;;;15.10;63.40;;;;;;5030655;28;20018;-71
2023/06/05 04:37:38;;;;;;;11.60;5.78;;;15.10;63.50;;;;;;5033011;28;20022;-72
2023/06/05 04:40:05;;;;;;;10.02;5.85;;;15.10;63.50;;;;;;5027872;28;20671;-72
2023/06/05 04:42:33;;;;;;;10.57;6.32;;;15.20;63.60;;;;;;5032368;28;20060;-71
2023/06/05 04:45:04;;;;;;;10.05;6.13;;;15.10;63.50;;;;;;5031652;28;20455;-71
2023/06/05 04:47:32;;;;;;;11.15;6.45;;;15.20;63.60;;;;;;5025227;28;20021;-71
2023/06/05 04:50:06;;;;;;;11.30;6.63;;;15.20;63.50;;;;;;5025527;28;20065;-71
2023/06/05 04:52:41;;;;;;;10.45;6.05;;;15.20;63.40;;;;;;5033903;28;20034;-71
2023/06/05 04:55:07;;;;;;;10.20;6.05;;;15.20;63.40;;;;;;5032780;28;20087;-71
2023/06/05 04:57:33;;;;;;;9.75;5.68;;;15.20;63.30;;;;;;5033494;28;20025;-71
2023/06/05 05:00:07;;;;;;;10.52;6.75;;;15.30;63.30;;;;;;5025447;28;20518;-71
2023/06/05 05:02:34;;;;;;;12.00;5.60;;;15.30;63.20;;;;;;5028994;28;20029;-71
2023/06/05 05:05:00;;;;;;;9.20;5.07;;;15.30;63.10;;;;;;5025677;28;20018;-71
2023/06/05 05:07:28;;;;;;;11.80;6.25;;;15.40;63.10;;;;;;5020874;28;20037;-72
2023/06/05 05:09:54;;;;;;;10.20;5.88;;;15.40;63.00;;;;;;5023705;28;20022;-72
2023/06/05 05:12:21;;;;;;;10.68;6.00;;;15.50;62.90;;;;;;5032669;28;20108;-72
2023/06/05 05:14:47;;;;;;;10.40;5.70;;;15.60;62.90;;;;;;5033933;28;20029;-72
2023/06/05 05:17:15;;;;;;;10.32;5.78;;;15.60;62.70;;;;;;5043486;28;20032;-72
2023/06/05 05:19:40;;;;;;;9.25;5.68;;;15.70;62.60;;;;;;5053123;28;20083;-72
2023/06/05 05:22:07;;;;;;;11.85;5.50;;;15.90;62.50;;;;;;5047488;28;20060;-72
2023/06/05 05:24:33;;;;;;;10.25;5.45;;;16.00;62.20;;;;;;5048239;28;20065;-72
2023/06/05 05:27:00;;;;;;;9.95;5.53;;;16.20;61.90;;;;;;5053778;28;20029;-72
2023/06/05 05:29:26;;;;;;;10.02;5.75;;;16.20;61.60;;;;;;5053308;28;20033;-72
2023/06/05 05:31:52;;;;;;;10.88;6.07;;;16.30;61.40;;;;;;5028802;28;20022;-72
2023/06/05 05:34:19;;;;;;;9.73;5.60;;;16.40;61.30;;;;;;5044042;28;20397;-72
2023/06/05 05:36:44;;;;;;;12.55;6.40;;;16.40;61.10;;;;;;5036104;28;20024;-72
2023/06/05 05:39:11;;;;;;;8.95;5.38;;;16.50;60.90;;;;;;5023999;28;20026;-72
2023/06/05 05:41:37;;;;;;;9.98;5.55;;;16.50;60.80;;;;;;5043737;28;20022;-72
2023/06/05 05:44:02;;;;;;;9.52;5.75;;;16.60;60.70;;;;;;5005160;28;20474;-72
2023/06/05 05:46:28;;;;;;;9.35;5.97;;;16.70;60.50;;;;;;5017598;28;20029;-72
2023/06/05 05:48:54;;;;;;;9.70;5.45;;;16.80;60.40;;;;;;5032028;28;20037;-72
2023/06/05 05:51:21;;;;;;;10.98;5.75;;;16.80;60.20;;;;;;5027283;28;20045;-72
2023/06/05 05:53:46;;;;;;;10.90;5.32;;;16.90;60.10;;;;;;5033379;28;20041;-72
2023/06/05 05:56:12;;;;;;;10.35;6.07;;;17.00;59.80;;;;;;5026654;28;20021;-72
2023/06/05 05:58:38;;;;;;;11.20;6.28;;;17.10;59.70;;;;;;5016829;28;20018;-72
2023/06/05 06:01:04;;;;;;;10.93;5.75;;;17.20;59.70;;;;;;5023374;28;20133;-72
2023/06/05 06:03:29;;;;;;;11.00;6.03;;;17.20;59.40;;;;;;5024872;28;20029;-71
2023/06/05 06:05:57;;;;;;;9.95;5.00;;;17.30;59.30;;;;;;5026811;28;20045;-72
2023/06/05 06:08:22;;;;;;;23.23;6.35;;;17.40;59.20;;;;;;5027969;28;20033;-71
2023/06/05 06:10:48;;;;;;;13.55;6.03;;;17.40;59.10;;;;;;5031188;28;20051;-71
2023/06/05 06:13:14;;;;;;;28.45;7.57;;;17.50;59.00;;;;;;5028659;28;20069;-71
2023/06/05 06:15:40;;;;;;;9.80;5.20;;;17.60;58.90;;;;;;5025894;28;20095;-70
2023/06/05 06:18:06;;;;;;;10.13;5.53;;;17.70;58.70;;;;;;5025586;28;20044;-71
2023/06/05 06:20:33;;;;;;;10.57;4.50;;;17.80;58.50;;;;;;5028614;28;20026;-70
2023/06/05 06:22:59;;;;;;;8.73;5.00;;;17.90;58.30;;;;;;5026580;28;20025;-70
2023/06/05 06:25:34;;;;;;;9.60;4.53;;;18.00;58.10;;;;;;5028051;28;20061;-69
2023/06/05 06:28:01;;;;;;;11.23;4.90;;;18.10;57.80;;;;;;5029286;28;20096;-69
2023/06/05 06:30:27;;;;;;;8.50;5.07;;;18.20;57.50;;;;;;5010806;28;20399;-69
2023/06/05 06:32:57;;;;;;;8.70;4.85;;;18.30;57.30;;;;;;5025887;28;20036;-69
2023/06/05 06:35:24;;;;;;;13.00;5.30;;;18.40;57.20;;;;;;5020553;28;20068;-70
2023/06/05 06:37:54;;;;;;;10.15;5.25;;;18.50;57.00;;;;;;5015394;28;20033;-72
2023/06/05 06:40:20;;;;;;;10.35;5.00;;;18.60;56.80;;;;;;5029494;28;20211;-69
2023/06/05 06:42:46;;;;;;;8.45;4.65;;;18.80;56.60;;;;;;5030003;28;20077;-68
2023/06/05 06:45:38;;;;;;;9.25;4.90;;;18.90;56.40;;;;;;5024843;28;20030;-67
2023/06/05 06:48:04;;;;;;;9.60;4.45;;;19.10;56.00;;;;;;5026267;28;20102;-67
2023/06/05 06:50:29;;;;;;;8.77;4.05;;;19.20;55.70;;;;;;5005036;28;20370;-68
2023/06/05 06:52:55;;;;;;;9.23;4.38;;;19.30;55.40;;;;;;5032951;28;20030;-74
2023/06/05 06:55:21;;;;;;;9.43;4.80;;;19.40;55.20;;;;;;5023100;28;20453;-73
2023/06/05 06:57:46;;;;;;;8.13;4.38;;;19.60;55.00;;;;;;5035108;28;20022;-73
2023/06/05 07:00:12;;;;;;;10.32;4.80;;;19.70;54.80;;;;;;5022485;28;20382;-72
2023/06/05 07:02:40;;;;;;;9.75;4.32;;;19.90;54.50;;;;;;5035089;28;20525;-74
2023/06/05 07:05:06;;;;;;;8.25;4.20;;;20.00;54.10;;;;;;5034734;28;20332;-73
2023/06/05 07:07:31;;;;;;;7.47;4.15;;;20.20;53.90;;;;;;5033039;28;20481;-75
2023/06/05 07:10:00;;;;;;;8.27;4.07;;;20.20;53.50;;;;;;5023470;28;20041;-72
2023/06/05 07:12:26;;;;;;;9.88;3.92;;;20.40;53.10;;;;;;5027584;28;20044;-73
2023/06/05 07:14:52;;;;;;;8.90;4.32;;;20.50;52.90;;;;;;5034781;28;20021;-68
2023/06/05 07:17:18;;;;;;;9.38;3.83;;;20.60;52.70;;;;;;5032083;28;20030;-68
2023/06/05 07:19:44;;;;;;;9.07;4.05;;;20.80;52.50;;;;;;5029926;28;20469;-68
2023/06/05 07:22:10;;;;;;;9.85;4.15;;;20.90;52.00;;;;;;5034195;28;20025;-69
2023/06/05 07:24:38;;;;;;;9.45;4.63;;;20.90;52.40;;;;;;5017957;28;20053;-68
2023/06/05 07:31:44;;;;;;;8.95;3.90;;;21.20;51.30;;;;;;5030955;28;20040;-70
2023/06/05 07:37:57;;;;;;;8.07;3.47;;;21.50;51.10;;;;;;5018257;28;20162;-68
2023/06/05 07:40:23;;;;;;;8.85;4.28;;;21.70;50.80;;;;;;5027962;28;20142;-67
2023/06/05 07:42:49;;;;;;;8.60;3.53;;;21.80;50.60;;;;;;5034150;28;20048;-68
2023/06/05 07:45:14;;;;;;;8.38;3.95;;;21.90;50.60;;;;;;5034200;28;20026;-68
2023/06/05 07:47:40;;;;;;;7.85;3.97;;;22.10;50.40;;;;;;5032727;28;20030;-69
2023/06/05 07:50:06;;;;;;;7.63;3.92;;;22.20;50.20;;;;;;5030201;28;20056;-68
2023/06/05 07:52:32;;;;;;;7.90;4.03;;;22.30;50.00;;;;;;5033994;28;20030;-68
2023/06/05 07:54:58;;;;;;;8.25;4.03;;;22.30;49.70;;;;;;5023385;28;20032;-70
2023/06/05 07:57:24;;;;;;;9.10;3.95;;;22.40;49.70;;;;;;5027152;28;20033;-72
2023/06/05 07:59:51;;;;;;;7.63;3.60;;;22.50;49.60;;;;;;5035186;28;20017;-73
2023/06/05 08:02:20;;;;;;;8.32;3.65;;;22.60;49.40;;;;;;5027720;28;20042;-71
2023/06/05 08:04:46;;;;;;;7.32;3.92;;;22.60;49.20;;;;;;5009823;28;20382;-68
2023/06/05 08:07:13;;;;;;;8.05;3.72;;;22.70;49.20;;;;;;5034654;28;20435;-70
2023/06/05 08:09:39;;;;;;;7.45;3.70;;;22.80;49.20;;;;;;5021713;28;20022;-70
2023/06/05 08:12:05;;;;;;;7.75;4.03;;;22.80;49.10;;;;;;5032421;28;20355;-70
2023/06/05 08:14:31;;;;;;;6.55;3.40;;;22.90;49.00;;;;;;5028104;28;20017;-71
2023/06/05 08:16:57;;;;;;;7.07;3.83;;;23.00;48.80;;;;;;5049722;28;20184;-70
2023/06/05 08:19:23;;;;;;;6.78;3.38;;;23.10;48.70;;;;;;5032419;28;20105;-71
2023/06/05 08:21:59;;;;;;;8.70;3.85;;;23.20;48.60;;;;;;5034443;28;20027;-71
2023/06/05 08:24:26;;;;;;;8.27;3.85;;;23.30;48.40;;;;;;5036895;28;20026;-71
2023/06/05 08:26:52;;;;;;;7.00;3.03;;;23.40;48.30;;;;;;5038103;28;20036;-71
2023/06/05 08:29:18;;;;;;;7.47;3.55;;;23.40;48.20;;;;;;5037414;28;20037;-70
2023/06/05 08:31:44;;;;;;;8.10;3.72;;;23.50;48.10;;;;;;5021543;28;20029;-69
2023/06/05 08:34:10;;;;;;;6.97;3.50;;;23.50;47.90;;;;;;5033324;28;20052;-71
2023/06/05 08:36:36;;;;;;;7.90;4.00;;;23.60;48.40;;;;;;5035647;28;20438;-70
2023/06/05 08:39:04;;;;;;;7.43;3.20;;;23.60;47.70;;;;;;5051383;28;20561;-69
2023/06/05 08:41:31;;;;;;;6.60;3.50;;;23.70;47.70;;;;;;5029962;28;20025;-70
2023/06/05 08:43:57;;;;;;;7.03;3.92;;;23.80;47.50;;;;;;5036956;28;20370;-68
2023/06/05 08:46:30;;;;;;;7.57;3.28;;;23.90;47.30;;;;;;5030440;28;20026;-68
2023/06/05 08:48:57;;;;;;;7.95;3.05;;;24.00;47.10;;;;;;5038566;28;20440;-68
2023/06/05 08:51:23;;;;;;;6.55;2.88;;;24.10;47.10;;;;;;5040772;28;20029;-69
2023/06/05 08:53:59;;;;;;;9.30;3.42;;;24.20;47.60;;;;;;5049825;28;20115;-68
2023/06/05 08:56:26;;;;;;;6.65;3.50;;;24.30;46.80;;;;;;5025895;28;20163;-68
2023/06/05 08:58:53;;;;;;;6.93;3.60;;;24.40;46.70;;;;;;5047679;28;20025;-68
2023/06/05 09:01:19;;;;;;;7.38;3.50;;;24.50;46.50;;;;;;5033300;28;20447;-70
2023/06/05 09:03:45;;;;;;;6.88;3.45;;;24.50;46.30;;;;;;5029451;28;20022;-68
2023/06/05 09:06:11;;;;;;;9.40;3.30;;;24.60;46.40;;;;;;5050675;28;20029;-68
2023/06/05 09:08:37;;;;;;;7.03;3.33;;;24.70;46.30;;;;;;5027452;28;20026;-68
2023/06/05 09:11:22;;;;;;;7.75;3.50;;;24.70;46.20;;;;;;5039111;28;20033;-69
2023/06/05 09:13:49;;;;;;;6.95;3.17;;;24.90;46.10;;;;;;5034838;28;20051;-69
2023/06/05 09:16:18;;;;;;;8.05;2.80;;;25.00;45.90;;;;;;5033368;28;20492;-68
2023/06/05 09:18:58;;;;;;;6.85;2.83;;;25.10;45.70;;;;;;5025044;28;20120;-69
2023/06/05 09:21:30;;;;;;;7.45;3.33;;;25.30;45.70;;;;;;5030411;28;20041;-68
2023/06/05 09:24:16;;;;;;;7.20;3.53;;;25.30;45.60;;;;;;5044072;28;20103;-68
2023/06/05 09:27:00;;;;;;;8.75;3.63;;;25.50;45.50;;;;;;5053095;28;20025;-68
2023/06/05 09:29:31;;;;;;;7.85;3.65;;;25.50;45.00;;;;;;5035490;28;20121;-68
2023/06/05 09:31:58;;;;;;;;;;;25.50;45.00;;;;;;5054608;28;20039;-69
2023/06/05 09:34:35;;;;;;;7.22;2.85;;;25.60;45.20;;;;;;5053871;28;19913;-68
2023/06/05 09:37:04;;;;;;;9.10;3.20;;;25.70;45.10;;;;;;5052698;28;20033;-68
2023/06/05 09:39:31;;;;;;;9.55;4.32;;;25.70;44.90;;;;;;5039537;28;20029;-68
2023/06/05 09:41:58;;;;;;;7.15;3.40;;;25.80;44.80;;;;;;5048903;28;20017;-68
2023/06/05 09:44:25;;;;;;;6.57;3.05;;;25.80;44.70;;;;;;5050116;28;20021;-69
2023/06/05 09:47:05;;;;;;;6.95;3.50;;;25.90;44.70;;;;;;5039752;28;20037;-68
2023/06/05 09:49:40;;;;;;;6.40;3.10;;;26.00;44.50;;;;;;5048990;28;20083;-69
2023/06/05 09:52:07;;;;;;;9.40;3.22;;;26.20;44.60;;;;;;5037328;28;20466;-68
2023/06/05 09:54:37;;;;;;;6.68;3.10;;;26.20;44.40;;;;;;5044188;28;20112;-69
2023/06/05 09:57:04;;;;;;;7.78;3.03;;;26.30;44.20;;;;;;5045873;28;20036;-68
2023/06/05 09:59:32;;;;;;;6.70;3.13;;;26.30;43.90;;;;;;5028363;28;20021;-69
2023/06/05 10:02:04;;;;;;;6.75;2.92;;;26.40;43.70;;;;;;5019599;28;20045;-68
2023/06/05 10:04:52;;;;;;;8.93;3.90;;;26.40;43.50;;;;;;5025504;28;20052;-68
2023/06/05 10:07:19;;;;;;;7.07;3.47;;;26.40;43.50;;;;;;5017560;28;20045;-69
2023/06/05 10:09:50;;;;;;;5.85;2.70;;;26.30;43.60;;;;;;5015096;28;20061;-68
2023/06/05 10:12:16;;;;;;;7.43;3.10;;;26.40;43.80;;;;;;5030906;28;20025;-69
2023/06/05 10:14:43;;;;;;;8.65;3.65;;;26.50;43.80;;;;;;5022519;28;20033;-69
2023/06/05 10:17:11;;;;;;;6.35;3.17;;;26.60;43.60;;;;;;5025203;28;20350;-68
2023/06/05 10:19:41;;;;;;;7.05;3.50;;;26.60;43.90;;;;;;5030623;28;20021;-68
2023/06/05 10:22:06;;;;;;;6.47;2.72;;;26.60;43.30;;;;;;5028122;28;20013;-69
2023/06/05 10:24:35;;;;;;;7.55;3.00;;;26.60;43.30;;;;;;5028529;28;20025;-68
2023/06/05 10:27:43;;;;;;;6.72;3.22;;;26.70;43.20;;;;;;5034597;28;20084;-68
2023/06/05 10:30:40;;;;;;;7.25;3.00;;;26.80;43.10;;;;;;5015206;28;20415;-68
2023/06/05 10:33:24;;;;;;;7.68;3.28;;;26.90;43.10;;;;;;5024601;28;20112;-68
2023/06/05 10:36:10;;;;;;;5.97;3.10;;;27.00;42.90;;;;;;5036304;28;20033;-68
2023/06/05 10:38:39;;;;;;;6.55;2.95;;;27.00;42.80;;;;;;5040228;28;20027;-68
2023/06/05 10:41:05;;;;;;;6.68;3.30;;;27.00;42.90;;;;;;5012820;28;20101;-68
2023/06/05 10:43:31;;;;;;;6.43;2.75;;;27.10;42.60;;;;;;5030760;28;20060;-68
2023/06/05 10:45:59;;;;;;;8.32;3.33;;;27.10;42.40;;;;;;5028640;28;20442;-68
2023/06/05 10:49:03;;;;;;;6.95;3.00;;;27.10;42.40;;;;;;5033652;28;20096;-69
2023/06/05 10:51:39;;;;;;;7.65;3.08;;;27.20;42.50;;;;;;5044972;28;20177;-70
2023/06/05 10:54:10;;;;;;;7.47;2.90;;;27.20;42.30;;;;;;5031778;28;20028;-68
2023/06/05 10:57:01;;;;;;;6.00;2.70;;;27.20;42.20;;;;;;5035031;28;20354;-68
2023/06/05 10:59:34;;;;;;;;;;;27.20;42.20;;;;;;5025575;28;20030;-68
2023/06/05 11:02:06;;;;;;;6.72;3.00;;;27.20;42.30;;;;;;5022117;28;19921;-68
2023/06/05 11:04:47;;;;;;;6.95;3.00;;;27.20;42.30;;;;;;5026112;28;20362;-68
2023/06/05 11:07:23;;;;;;;7.22;3.15;;;27.30;42.30;;;;;;5025335;28;20030;-67
2023/06/05 11:10:08;;;;;;;7.45;2.90;;;27.30;42.30;;;;;;5030186;28;20079;-67
2023/06/05 11:12:43;;;;;;;7.82;3.13;;;27.30;41.90;;;;;;5028765;28;20033;-68
2023/06/05 11:15:11;;;;;;;5.88;2.50;;;27.40;41.80;;;;;;5027059;28;20084;-68
2023/06/05 11:17:47;;;;;;;7.15;3.20;;;27.30;41.70;;;;;;5008692;28;20030;-68
2023/06/05 11:20:25;;;;;;;5.93;3.00;;;27.30;41.50;;;;;;5024752;28;20044;-68
2023/06/05 11:22:55;;;;;;;6.68;2.85;;;27.40;41.50;;;;;;5029245;28;20433;-68
2023/06/05 11:25:21;;;;;;;6.20;2.67;;;27.40;41.40;;;;;;5035677;28;20029;-68
2023/06/05 11:27:52;;;;;;;6.47;2.65;;;27.40;42.00;;;;;;5033062;28;20028;-68
2023/06/05 11:30:20;;;;;;;5.25;2.03;;;27.50;41.30;;;;;;5023560;28;20058;-68
2023/06/05 11:32:46;;;;;;;4.95;2.45;;;27.50;41.30;;;;;;5022511;28;20025;-68
2023/06/05 11:35:12;;;;;;;6.53;2.92;;;27.50;41.30;;;;;;5026778;28;20029;-69
2023/06/05 11:37:39;;;;;;;6.78;2.38;;;27.50;41.30;;;;;;5026858;28;20085;-68
2023/06/05 11:40:09;;;;;;;5.63;2.00;;;27.60;41.40;;;;;;5032684;28;20117;-69
2023/06/05 11:42:39;;;;;;;7.47;3.03;;;27.60;41.40;;;;;;5024228;28;20403;-69
2023/06/05 11:45:14;;;;;;;5.03;2.40;;;27.70;41.40;;;;;;5027939;28;20068;-68
2023/06/05 11:47:41;;;;;;;5.28;2.47;;;27.70;41.40;;;;;;5027786;28;20034;-67
2023/06/05 11:50:08;;;;;;;5.32;2.45;;;27.70;41.40;;;;;;5022542;28;20442;-68
2023/06/05 11:52:35;;;;;;;6.55;2.83;;;27.60;41.30;;;;;;5027759;28;20103;-70
2023/06/05 11:55:22;;;;;;;7.43;2.72;;;27.50;41.30;;;;;;5027936;28;20037;-69
2023/06/05 11:57:49;;;;;;;7.35;2.45;;;27.50;41.40;;;;;;5024105;28;20473;-68
2023/06/05 12:00:16;;;;;;;5.97;2.25;;;27.40;41.40;;;;;;5025724;28;20022;-69
2023/06/05 12:02:42;;;;;;;5.32;2.38;;;27.40;41.40;;;;;;5034907;28;20045;-69
2023/06/05 12:05:09;;;;;;;6.53;2.40;;;27.30;41.20;;;;;;5027663;28;20114;-70
2023/06/05 12:07:37;;;;;;;9.60;2.70;;;27.30;41.10;;;;;;5024965;28;20123;-69
2023/06/05 12:10:07;;;;;;;5.70;2.55;;;27.20;41.10;;;;;;5008282;28;20483;-70
2023/06/05 12:12:50;;;;;;;7.53;2.70;;;27.10;41.30;;;;;;5021148;28;20099;-69
2023/06/05 12:15:17;;;;;;;7.05;3.22;;;27.10;41.00;;;;;;5027637;28;20140;-70
2023/06/05 12:17:54;;;;;;;5.80;2.80;;;26.90;40.90;;;;;;5024184;28;20030;-70
2023/06/05 12:20:22;;;;;;;5.30;2.70;;;26.80;40.90;;;;;;5008971;28;20033;-70
2023/06/05 12:22:48;;;;;;;5.70;2.38;;;26.70;41.10;;;;;;5026143;28;20033;-68
2023/06/05 12:25:23;;;;;;;6.07;2.45;;;26.70;41.00;;;;;;5028215;28;20033;-69
2023/06/05 12:27:49;;;;;;;6.93;2.30;;;26.60;40.90;;;;;;5023475;28;20025;-69
2023/06/05 12:30:19;;;;;;;5.80;2.50;;;26.50;41.30;;;;;;5036584;28;20021;-69
2023/06/05 12:32:45;;;;;;;6.00;2.35;;;26.50;41.50;;;;;;5024283;28;20140;-69
2023/06/05 12:35:27;;;;;;;6.18;2.50;;;26.40;41.30;;;;;;5033300;28;20356;-69
2023/06/05 12:38:00;;;;;;;6.72;2.60;;;26.40;41.60;;;;;;5055047;28;20028;-70
2023/06/05 12:40:25;;;;;;;5.68;2.60;;;26.40;41.60;;;;;;5054747;28;20039;-70
2023/06/05 12:42:51;;;;;;;5.07;2.60;;;26.30;41.40;;;;;;5045782;28;20081;-69
2023/06/05 12:45:17;;;;;;;5.53;2.53;;;26.30;41.60;;;;;;5050772;28;20035;-70
2023/06/05 12:47:43;;;;;;;5.95;2.50;;;26.20;41.60;;;;;;5055184;28;20215;-70
2023/06/05 12:50:13;;;;;;;6.43;2.65;;;26.10;41.50;;;;;;5054285;28;20033;-70
2023/06/05 12:52:40;;;;;;;5.65;2.17;;;26.00;41.20;;;;;;5038715;28;20034;-70
2023/06/05 12:55:08;;;;;;;5.78;2.80;;;25.90;41.20;;;;;;5024239;28;20025;-70
2023/06/05 12:57:34;;;;;;;6.75;2.78;;;25.90;41.10;;;;;;5026899;28;20418;-70
2023/06/05 13:00:12;;;;;;;6.10;2.63;;;25.90;41.30;;;;;;5029002;28;20400;-70
2023/06/05 13:02:42;;;;;;;5.40;2.63;;;25.80;41.60;;;;;;5025173;28;20374;-69